This is the latest recevied weather packets stored in our database for station/object SP8PUB-10. If no packets are shown the sender has not sent any weather packets the latest 10 day(s).
| Time | Temp. | Humidity | Pressure | Rain* | Wind** | Luminosity | Snow |
|---|---|---|---|---|---|---|---|
| 1777884189 | 32.22° C | 34% | 1017.8 hPa | - | - | - | - |
| 1777883289 | 33.89° C | 33% | 1017.9 hPa | - | - | - | - |
| 1777882389 | 35° C | 32% | 1017.9 hPa | - | - | - | - |
| 1777881489 | 36.11° C | 32% | 1018 hPa | - | - | - | - |
| 1777880588 | 36.67° C | 32% | 1018.1 hPa | - | - | - | - |
| 1777879688 | 33.89° C | 34% | 1017.9 hPa | - | - | - | - |
| 1777878788 | 32.78° C | 35% | 1018 hPa | - | - | - | - |
| 1777877888 | 32.78° C | 34% | 1018.1 hPa | - | - | - | - |
| 1777876988 | 32.22° C | 34% | 1018 hPa | - | - | - | - |
| 1777876088 | 32.78° C | 36% | 1018 hPa | - | - | - | - |
| 1777875188 | 30° C | 38% | 1017.8 hPa | - | - | - | - |
| 1777874288 | 27.22° C | 43% | 1017.9 hPa | - | - | - | - |
| 1777873388 | 25° C | 46% | 1017.8 hPa | - | - | - | - |
| 1777872487 | 23.33° C | 48% | 1017.7 hPa | - | - | - | - |
| 1777871587 | 22.78° C | 48% | 1017.7 hPa | - | - | - | - |
| 1777870687 | 20.56° C | 51% | 1017.8 hPa | - | - | - | - |
| 1777869787 | 18.33° C | 53% | 1017.7 hPa | - | - | - | - |
| 1777868887 | 17.22° C | 55% | 1017.5 hPa | - | - | - | - |
| 1777867987 | 16.67° C | 58% | 1017.4 hPa | - | - | - | - |
| 1777867087 | 15° C | 62% | 1017.3 hPa | - | - | - | - |
| 1777866187 | 11.67° C | 74% | 1017.2 hPa | - | - | - | - |
| 1777865287 | 6.11° C | 98% | 1017.2 hPa | - | - | - | - |
| 1777864387 | 6.11° C | 97% | 1017.2 hPa | - | - | - | - |
| 1777863486 | 6.11° C | 96% | 1017.3 hPa | - | - | - | - |
| 1777862586 | 6.11° C | 96% | 1017.2 hPa | - | - | - | - |
* Rain since midnight (hover to see other rain measurements)
** Current wind speed in m/s (hover to see current wind gust speed)